sensor_id;sensor_type;location;lat;lon;timestamp;P1;durP1;ratioP1;P2;durP2;ratioP2
21987;SDS011;11158;53.404;-1.510;2023-03-14T00:02:12;0.93;;;0.93;;
21987;SDS011;11158;53.404;-1.510;2023-03-14T00:04:37;1.42;;;1.20;;
21987;SDS011;11158;53.404;-1.510;2023-03-14T00:07:03;1.00;;;1.00;;
21987;SDS011;11158;53.404;-1.510;2023-03-14T00:09:29;1.05;;;0.90;;
21987;SDS011;11158;53.404;-1.510;2023-03-14T00:11:55;0.80;;;0.80;;
21987;SDS011;11158;53.404;-1.510;2023-03-14T00:14:22;1.10;;;1.00;;
21987;SDS011;11158;53.404;-1.510;2023-03-14T00:16:47;1.98;;;1.00;;
21987;SDS011;11158;53.404;-1.510;2023-03-14T00:19:13;1.35;;;1.02;;
21987;SDS011;11158;53.404;-1.510;2023-03-14T00:21:39;1.30;;;1.20;;
21987;SDS011;11158;53.404;-1.510;2023-03-14T00:24:05;1.40;;;1.00;;
21987;SDS011;11158;53.404;-1.510;2023-03-14T00:26:31;1.13;;;1.02;;
21987;SDS011;11158;53.404;-1.510;2023-03-14T00:28:56;1.42;;;1.13;;
21987;SDS011;11158;53.404;-1.510;2023-03-14T00:31:22;1.20;;;1.10;;
21987;SDS011;11158;53.404;-1.510;2023-03-14T00:33:47;1.00;;;0.90;;
21987;SDS011;11158;53.404;-1.510;2023-03-14T00:36:14;0.90;;;0.90;;
21987;SDS011;11158;53.404;-1.510;2023-03-14T00:38:42;1.75;;;1.00;;
21987;SDS011;11158;53.404;-1.510;2023-03-14T00:41:09;1.73;;;1.08;;
21987;SDS011;11158;53.404;-1.510;2023-03-14T00:43:36;1.30;;;1.20;;
21987;SDS011;11158;53.404;-1.510;2023-03-14T00:46:03;1.38;;;1.17;;
21987;SDS011;11158;53.404;-1.510;2023-03-14T00:48:29;1.30;;;1.10;;
21987;SDS011;11158;53.404;-1.510;2023-03-14T00:50:54;1.13;;;1.00;;
21987;SDS011;11158;53.404;-1.510;2023-03-14T00:53:20;1.05;;;0.98;;
21987;SDS011;11158;53.404;-1.510;2023-03-14T00:55:46;1.08;;;1.02;;
21987;SDS011;11158;53.404;-1.510;2023-03-14T00:58:12;1.23;;;1.10;;
21987;SDS011;11158;53.404;-1.510;2023-03-14T01:00:39;1.20;;;1.02;;
21987;SDS011;11158;53.404;-1.510;2023-03-14T01:03:06;2.20;;;1.13;;
21987;SDS011;11158;53.404;-1.510;2023-03-14T01:05:32;1.15;;;1.00;;
21987;SDS011;11158;53.404;-1.510;2023-03-14T01:07:58;1.50;;;0.93;;
21987;SDS011;11158;53.404;-1.510;2023-03-14T01:10:24;1.38;;;1.10;;
21987;SDS011;11158;53.404;-1.510;2023-03-14T01:12:50;1.98;;;1.10;;
21987;SDS011;11158;53.404;-1.510;2023-03-14T01:15:16;2.25;;;1.35;;
21987;SDS011;11158;53.404;-1.510;2023-03-14T01:17:41;1.10;;;1.02;;
21987;SDS011;11158;53.404;-1.510;2023-03-14T01:20:08;1.23;;;0.93;;
21987;SDS011;11158;53.404;-1.510;2023-03-14T01:22:36;1.00;;;0.88;;
21987;SDS011;11158;53.404;-1.510;2023-03-14T01:25:04;0.85;;;0.85;;
21987;SDS011;11158;53.404;-1.510;2023-03-14T01:27:30;2.47;;;1.00;;
21987;SDS011;11158;53.404;-1.510;2023-03-14T01:29:55;1.25;;;0.95;;
21987;SDS011;11158;53.404;-1.510;2023-03-14T01:32:21;1.98;;;1.10;;
21987;SDS011;11158;53.404;-1.510;2023-03-14T01:35:06;2.40;;;1.20;;
21987;SDS011;11158;53.404;-1.510;2023-03-14T01:37:50;2.72;;;1.10;;
21987;SDS011;11158;53.404;-1.510;2023-03-14T01:40:40;3.33;;;0.95;;
21987;SDS011;11158;53.404;-1.510;2023-03-14T01:43:26;1.55;;;1.10;;
21987;SDS011;11158;53.404;-1.510;2023-03-14T01:46:17;4.85;;;1.67;;
21987;SDS011;11158;53.404;-1.510;2023-03-14T01:52:12;3.60;;;1.17;;
21987;SDS011;11158;53.404;-1.510;2023-03-14T01:55:04;4.65;;;1.40;;
21987;SDS011;11158;53.404;-1.510;2023-03-14T01:57:54;1.85;;;1.15;;
21987;SDS011;11158;53.404;-1.510;2023-03-14T02:00:42;3.85;;;1.48;;
21987;SDS011;11158;53.404;-1.510;2023-03-14T02:03:27;4.55;;;1.73;;
21987;SDS011;11158;53.404;-1.510;2023-03-14T02:06:14;2.67;;;1.35;;
21987;SDS011;11158;53.404;-1.510;2023-03-14T02:09:03;6.95;;;1.77;;
21987;SDS011;11158;53.404;-1.510;2023-03-14T02:11:47;5.00;;;1.80;;
21987;SDS011;11158;53.404;-1.510;2023-03-14T02:14:34;3.28;;;1.50;;
21987;SDS011;11158;53.404;-1.510;2023-03-14T02:17:20;6.25;;;1.25;;
21987;SDS011;11158;53.404;-1.510;2023-03-14T02:20:18;3.35;;;1.45;;
21987;SDS011;11158;53.404;-1.510;2023-03-14T02:23:08;4.20;;;1.30;;
21987;SDS011;11158;53.404;-1.510;2023-03-14T02:26:28;3.85;;;1.33;;
21987;SDS011;11158;53.404;-1.510;2023-03-14T02:29:12;1.98;;;1.10;;
21987;SDS011;11158;53.404;-1.510;2023-03-14T02:31:56;4.32;;;1.13;;
21987;SDS011;11158;53.404;-1.510;2023-03-14T02:34:40;3.03;;;1.17;;
21987;SDS011;11158;53.404;-1.510;2023-03-14T02:37:30;4.80;;;1.30;;
21987;SDS011;11158;53.404;-1.510;2023-03-14T02:40:19;4.97;;;1.30;;
21987;SDS011;11158;53.404;-1.510;2023-03-14T02:43:03;3.15;;;1.00;;
21987;SDS011;11158;53.404;-1.510;2023-03-14T02:45:48;3.33;;;1.00;;
21987;SDS011;11158;53.404;-1.510;2023-03-14T02:48:33;2.40;;;1.20;;
21987;SDS011;11158;53.404;-1.510;2023-03-14T02:51:21;3.17;;;1.13;;
21987;SDS011;11158;53.404;-1.510;2023-03-14T02:54:07;5.45;;;1.40;;
21987;SDS011;11158;53.404;-1.510;2023-03-14T02:56:51;3.03;;;1.25;;
21987;SDS011;11158;53.404;-1.510;2023-03-14T02:59:35;5.22;;;1.67;;
21987;SDS011;11158;53.404;-1.510;2023-03-14T03:02:19;3.80;;;1.20;;
21987;SDS011;11158;53.404;-1.510;2023-03-14T03:05:03;3.83;;;1.20;;
21987;SDS011;11158;53.404;-1.510;2023-03-14T03:07:48;3.53;;;1.20;;
21987;SDS011;11158;53.404;-1.510;2023-03-14T03:10:32;6.13;;;1.58;;
21987;SDS011;11158;53.404;-1.510;2023-03-14T03:13:17;5.72;;;1.60;;
21987;SDS011;11158;53.404;-1.510;2023-03-14T03:16:01;4.20;;;1.25;;
21987;SDS011;11158;53.404;-1.510;2023-03-14T03:18:46;3.70;;;1.58;;
21987;SDS011;11158;53.404;-1.510;2023-03-14T03:21:30;3.72;;;1.50;;
21987;SDS011;11158;53.404;-1.510;2023-03-14T03:24:14;9.38;;;1.65;;
21987;SDS011;11158;53.404;-1.510;2023-03-14T03:26:58;3.83;;;1.92;;
21987;SDS011;11158;53.404;-1.510;2023-03-14T03:29:42;5.07;;;1.60;;
21987;SDS011;11158;53.404;-1.510;2023-03-14T03:32:26;5.65;;;1.67;;
21987;SDS011;11158;53.404;-1.510;2023-03-14T03:35:10;5.15;;;1.73;;
21987;SDS011;11158;53.404;-1.510;2023-03-14T03:37:55;5.40;;;1.60;;
21987;SDS011;11158;53.404;-1.510;2023-03-14T03:40:39;5.47;;;1.45;;
21987;SDS011;11158;53.404;-1.510;2023-03-14T03:43:23;5.47;;;1.38;;
21987;SDS011;11158;53.404;-1.510;2023-03-14T03:46:07;4.57;;;1.52;;
21987;SDS011;11158;53.404;-1.510;2023-03-14T03:48:55;7.45;;;1.70;;
21987;SDS011;11158;53.404;-1.510;2023-03-14T03:51:41;3.08;;;1.33;;
21987;SDS011;11158;53.404;-1.510;2023-03-14T03:54:25;4.72;;;1.58;;
21987;SDS011;11158;53.404;-1.510;2023-03-14T03:57:10;1.80;;;1.25;;
21987;SDS011;11158;53.404;-1.510;2023-03-14T03:59:54;8.60;;;2.42;;
21987;SDS011;11158;53.404;-1.510;2023-03-14T04:02:38;13.65;;;2.58;;
21987;SDS011;11158;53.404;-1.510;2023-03-14T04:05:22;10.75;;;2.20;;
21987;SDS011;11158;53.404;-1.510;2023-03-14T04:08:06;7.85;;;1.90;;
21987;SDS011;11158;53.404;-1.510;2023-03-14T04:10:53;7.38;;;2.13;;
21987;SDS011;11158;53.404;-1.510;2023-03-14T04:13:39;13.70;;;2.50;;
21987;SDS011;11158;53.404;-1.510;2023-03-14T04:16:23;15.18;;;2.88;;
21987;SDS011;11158;53.404;-1.510;2023-03-14T04:19:09;17.23;;;2.88;;
21987;SDS011;11158;53.404;-1.510;2023-03-14T04:21:53;14.30;;;2.67;;
21987;SDS011;11158;53.404;-1.510;2023-03-14T04:24:37;12.30;;;2.55;;
21987;SDS011;11158;53.404;-1.510;2023-03-14T04:27:21;14.98;;;3.78;;
21987;SDS011;11158;53.404;-1.510;2023-03-14T04:30:05;12.65;;;2.97;;
21987;SDS011;11158;53.404;-1.510;2023-03-14T04:32:50;7.82;;;2.40;;
21987;SDS011;11158;53.404;-1.510;2023-03-14T04:35:34;11.75;;;2.05;;
21987;SDS011;11158;53.404;-1.510;2023-03-14T04:38:19;9.95;;;1.98;;
21987;SDS011;11158;53.404;-1.510;2023-03-14T04:41:03;8.65;;;2.15;;
21987;SDS011;11158;53.404;-1.510;2023-03-14T04:43:48;11.93;;;2.10;;
21987;SDS011;11158;53.404;-1.510;2023-03-14T04:46:32;15.40;;;2.10;;
21987;SDS011;11158;53.404;-1.510;2023-03-14T04:49:16;12.50;;;2.22;;
21987;SDS011;11158;53.404;-1.510;2023-03-14T04:52:00;10.43;;;2.63;;
21987;SDS011;11158;53.404;-1.510;2023-03-14T04:54:44;9.57;;;2.72;;
21987;SDS011;11158;53.404;-1.510;2023-03-14T04:57:28;6.63;;;2.28;;
21987;SDS011;11158;53.404;-1.510;2023-03-14T05:00:12;10.57;;;2.35;;
21987;SDS011;11158;53.404;-1.510;2023-03-14T05:02:57;7.10;;;2.13;;
21987;SDS011;11158;53.404;-1.510;2023-03-14T05:05:42;6.85;;;2.17;;
21987;SDS011;11158;53.404;-1.510;2023-03-14T05:08:26;6.60;;;1.95;;
21987;SDS011;11158;53.404;-1.510;2023-03-14T05:11:10;11.25;;;2.53;;
21987;SDS011;11158;53.404;-1.510;2023-03-14T05:13:55;12.68;;;2.58;;
21987;SDS011;11158;53.404;-1.510;2023-03-14T05:16:39;11.57;;;3.03;;
21987;SDS011;11158;53.404;-1.510;2023-03-14T05:19:23;8.65;;;2.15;;
21987;SDS011;11158;53.404;-1.510;2023-03-14T05:22:07;7.68;;;2.20;;
21987;SDS011;11158;53.404;-1.510;2023-03-14T05:24:51;10.15;;;2.83;;
21987;SDS011;11158;53.404;-1.510;2023-03-14T05:27:40;16.27;;;2.92;;
21987;SDS011;11158;53.404;-1.510;2023-03-14T05:30:24;15.90;;;3.10;;
21987;SDS011;11158;53.404;-1.510;2023-03-14T05:33:08;14.27;;;3.03;;
21987;SDS011;11158;53.404;-1.510;2023-03-14T05:35:52;15.77;;;3.28;;
21987;SDS011;11158;53.404;-1.510;2023-03-14T05:38:36;14.15;;;2.45;;
21987;SDS011;11158;53.404;-1.510;2023-03-14T05:41:20;19.77;;;3.35;;
21987;SDS011;11158;53.404;-1.510;2023-03-14T05:44:04;15.35;;;4.22;;
21987;SDS011;11158;53.404;-1.510;2023-03-14T05:46:48;18.95;;;2.95;;
21987;SDS011;11158;53.404;-1.510;2023-03-14T05:49:32;13.73;;;2.67;;
21987;SDS011;11158;53.404;-1.510;2023-03-14T05:52:16;19.67;;;2.95;;
21987;SDS011;11158;53.404;-1.510;2023-03-14T05:55:00;10.90;;;2.95;;
21987;SDS011;11158;53.404;-1.510;2023-03-14T05:57:44;11.70;;;2.85;;
21987;SDS011;11158;53.404;-1.510;2023-03-14T06:00:28;12.73;;;2.72;;
21987;SDS011;11158;53.404;-1.510;2023-03-14T06:03:12;10.13;;;2.55;;
21987;SDS011;11158;53.404;-1.510;2023-03-14T06:05:57;10.48;;;2.78;;
21987;SDS011;11158;53.404;-1.510;2023-03-14T06:08:41;12.68;;;2.70;;
21987;SDS011;11158;53.404;-1.510;2023-03-14T06:11:25;9.40;;;2.35;;
21987;SDS011;11158;53.404;-1.510;2023-03-14T06:14:09;19.08;;;4.15;;
21987;SDS011;11158;53.404;-1.510;2023-03-14T06:16:53;14.23;;;3.40;;
21987;SDS011;11158;53.404;-1.510;2023-03-14T06:19:37;8.13;;;1.95;;
21987;SDS011;11158;53.404;-1.510;2023-03-14T06:22:21;12.95;;;2.88;;
21987;SDS011;11158;53.404;-1.510;2023-03-14T06:25:05;6.60;;;2.28;;
21987;SDS011;11158;53.404;-1.510;2023-03-14T06:27:51;11.68;;;2.70;;
21987;SDS011;11158;53.404;-1.510;2023-03-14T06:30:35;19.02;;;3.25;;
21987;SDS011;11158;53.404;-1.510;2023-03-14T06:33:19;15.73;;;3.35;;
21987;SDS011;11158;53.404;-1.510;2023-03-14T06:36:03;14.30;;;2.60;;
21987;SDS011;11158;53.404;-1.510;2023-03-14T06:38:47;17.90;;;3.60;;
21987;SDS011;11158;53.404;-1.510;2023-03-14T06:41:32;17.67;;;2.78;;
21987;SDS011;11158;53.404;-1.510;2023-03-14T06:44:16;13.93;;;3.83;;
21987;SDS011;11158;53.404;-1.510;2023-03-14T06:47:00;15.05;;;2.65;;
21987;SDS011;11158;53.404;-1.510;2023-03-14T06:49:44;15.02;;;2.70;;
21987;SDS011;11158;53.404;-1.510;2023-03-14T06:52:28;18.60;;;2.50;;
21987;SDS011;11158;53.404;-1.510;2023-03-14T06:55:12;11.20;;;2.60;;
21987;SDS011;11158;53.404;-1.510;2023-03-14T06:57:57;16.92;;;2.58;;
21987;SDS011;11158;53.404;-1.510;2023-03-14T07:00:41;11.02;;;2.45;;
21987;SDS011;11158;53.404;-1.510;2023-03-14T07:03:25;12.63;;;3.17;;
21987;SDS011;11158;53.404;-1.510;2023-03-14T07:06:09;15.60;;;3.08;;
21987;SDS011;11158;53.404;-1.510;2023-03-14T07:08:53;12.82;;;2.83;;
21987;SDS011;11158;53.404;-1.510;2023-03-14T07:11:37;12.82;;;2.63;;
21987;SDS011;11158;53.404;-1.510;2023-03-14T07:14:22;14.90;;;2.55;;
21987;SDS011;11158;53.404;-1.510;2023-03-14T07:17:06;8.50;;;2.22;;
21987;SDS011;11158;53.404;-1.510;2023-03-14T07:19:50;10.85;;;2.40;;
21987;SDS011;11158;53.404;-1.510;2023-03-14T07:22:34;10.75;;;2.85;;
21987;SDS011;11158;53.404;-1.510;2023-03-14T07:25:18;10.43;;;2.47;;
21987;SDS011;11158;53.404;-1.510;2023-03-14T07:28:02;14.70;;;2.15;;
21987;SDS011;11158;53.404;-1.510;2023-03-14T07:30:47;10.75;;;2.28;;
21987;SDS011;11158;53.404;-1.510;2023-03-14T07:33:31;11.40;;;2.80;;
21987;SDS011;11158;53.404;-1.510;2023-03-14T07:36:15;8.25;;;2.40;;
21987;SDS011;11158;53.404;-1.510;2023-03-14T07:38:59;9.77;;;2.17;;
21987;SDS011;11158;53.404;-1.510;2023-03-14T07:41:44;9.65;;;2.38;;
21987;SDS011;11158;53.404;-1.510;2023-03-14T07:44:28;12.00;;;2.00;;
21987;SDS011;11158;53.404;-1.510;2023-03-14T07:47:12;16.15;;;2.58;;
21987;SDS011;11158;53.404;-1.510;2023-03-14T07:49:56;18.80;;;2.72;;
21987;SDS011;11158;53.404;-1.510;2023-03-14T07:52:40;10.05;;;2.13;;
21987;SDS011;11158;53.404;-1.510;2023-03-14T07:55:24;11.32;;;2.15;;
21987;SDS011;11158;53.404;-1.510;2023-03-14T07:58:08;12.57;;;2.60;;
21987;SDS011;11158;53.404;-1.510;2023-03-14T08:00:52;11.82;;;2.30;;
21987;SDS011;11158;53.404;-1.510;2023-03-14T08:03:37;14.85;;;2.80;;
21987;SDS011;11158;53.404;-1.510;2023-03-14T08:06:21;9.50;;;2.10;;
21987;SDS011;11158;53.404;-1.510;2023-03-14T08:09:05;9.52;;;2.00;;
21987;SDS011;11158;53.404;-1.510;2023-03-14T08:11:49;5.30;;;2.08;;
21987;SDS011;11158;53.404;-1.510;2023-03-14T08:14:33;10.40;;;1.92;;
21987;SDS011;11158;53.404;-1.510;2023-03-14T08:17:17;7.90;;;2.97;;
21987;SDS011;11158;53.404;-1.510;2023-03-14T08:20:01;10.38;;;1.73;;
21987;SDS011;11158;53.404;-1.510;2023-03-14T08:22:47;8.95;;;2.33;;
21987;SDS011;11158;53.404;-1.510;2023-03-14T08:25:31;11.02;;;2.45;;
21987;SDS011;11158;53.404;-1.510;2023-03-14T08:28:16;10.38;;;1.90;;
21987;SDS011;11158;53.404;-1.510;2023-03-14T08:31:00;16.00;;;2.47;;
21987;SDS011;11158;53.404;-1.510;2023-03-14T08:33:45;8.13;;;1.90;;
21987;SDS011;11158;53.404;-1.510;2023-03-14T08:36:29;11.30;;;1.80;;
21987;SDS011;11158;53.404;-1.510;2023-03-14T08:39:14;9.23;;;1.85;;
21987;SDS011;11158;53.404;-1.510;2023-03-14T08:41:58;12.27;;;1.88;;
21987;SDS011;11158;53.404;-1.510;2023-03-14T08:44:42;7.18;;;2.33;;
21987;SDS011;11158;53.404;-1.510;2023-03-14T08:47:27;11.90;;;1.85;;
21987;SDS011;11158;53.404;-1.510;2023-03-14T08:50:12;9.98;;;1.85;;
21987;SDS011;11158;53.404;-1.510;2023-03-14T08:52:56;8.52;;;1.63;;
21987;SDS011;11158;53.404;-1.510;2023-03-14T08:55:44;9.45;;;2.65;;
21987;SDS011;11158;53.404;-1.510;2023-03-14T08:58:28;8.13;;;1.88;;
21987;SDS011;11158;53.404;-1.510;2023-03-14T09:01:13;11.07;;;2.03;;
21987;SDS011;11158;53.404;-1.510;2023-03-14T09:03:57;10.60;;;1.88;;
21987;SDS011;11158;53.404;-1.510;2023-03-14T09:06:41;9.25;;;2.45;;
21987;SDS011;11158;53.404;-1.510;2023-03-14T09:09:25;7.70;;;1.67;;
21987;SDS011;11158;53.404;-1.510;2023-03-14T09:12:16;6.43;;;1.73;;
21987;SDS011;11158;53.404;-1.510;2023-03-14T09:15:00;8.50;;;1.92;;
21987;SDS011;11158;53.404;-1.510;2023-03-14T09:17:44;7.25;;;2.05;;
21987;SDS011;11158;53.404;-1.510;2023-03-14T09:20:28;8.07;;;1.65;;
21987;SDS011;11158;53.404;-1.510;2023-03-14T09:23:12;8.70;;;2.58;;
21987;SDS011;11158;53.404;-1.510;2023-03-14T09:25:59;7.80;;;1.63;;
21987;SDS011;11158;53.404;-1.510;2023-03-14T09:28:44;8.02;;;1.95;;
21987;SDS011;11158;53.404;-1.510;2023-03-14T09:31:28;8.55;;;1.77;;
21987;SDS011;11158;53.404;-1.510;2023-03-14T09:34:13;6.68;;;1.92;;
21987;SDS011;11158;53.404;-1.510;2023-03-14T09:36:57;10.25;;;1.95;;
21987;SDS011;11158;53.404;-1.510;2023-03-14T09:39:41;11.02;;;2.40;;
21987;SDS011;11158;53.404;-1.510;2023-03-14T09:42:26;9.43;;;2.55;;
21987;SDS011;11158;53.404;-1.510;2023-03-14T09:45:17;12.00;;;2.53;;
21987;SDS011;11158;53.404;-1.510;2023-03-14T09:48:14;8.88;;;2.00;;
21987;SDS011;11158;53.404;-1.510;2023-03-14T09:51:11;8.02;;;1.90;;
21987;SDS011;11158;53.404;-1.510;2023-03-14T09:53:59;5.82;;;1.77;;
21987;SDS011;11158;53.404;-1.510;2023-03-14T09:56:44;6.72;;;1.92;;
21987;SDS011;11158;53.404;-1.510;2023-03-14T09:59:28;10.75;;;2.75;;
21987;SDS011;11158;53.404;-1.510;2023-03-14T10:02:21;7.07;;;2.50;;
21987;SDS011;11158;53.404;-1.510;2023-03-14T10:05:18;6.18;;;2.22;;
21987;SDS011;11158;53.404;-1.510;2023-03-14T10:08:04;7.68;;;2.60;;
21987;SDS011;11158;53.404;-1.510;2023-03-14T10:10:49;9.70;;;1.98;;
21987;SDS011;11158;53.404;-1.510;2023-03-14T10:13:33;14.15;;;2.42;;
21987;SDS011;11158;53.404;-1.510;2023-03-14T10:16:19;6.13;;;1.85;;
21987;SDS011;11158;53.404;-1.510;2023-03-14T10:19:13;9.90;;;1.98;;
21987;SDS011;11158;53.404;-1.510;2023-03-14T10:22:00;5.82;;;1.85;;
21987;SDS011;11158;53.404;-1.510;2023-03-14T10:24:46;8.88;;;2.13;;
21987;SDS011;11158;53.404;-1.510;2023-03-14T10:27:36;5.63;;;1.70;;
21987;SDS011;11158;53.404;-1.510;2023-03-14T10:30:27;6.38;;;1.48;;
21987;SDS011;11158;53.404;-1.510;2023-03-14T10:36:23;6.60;;;1.60;;
21987;SDS011;11158;53.404;-1.510;2023-03-14T10:42:29;4.35;;;1.25;;
21987;SDS011;11158;53.404;-1.510;2023-03-14T10:51:02;4.50;;;1.35;;
21987;SDS011;11158;53.404;-1.510;2023-03-14T10:54:00;5.82;;;1.38;;
21987;SDS011;11158;53.404;-1.510;2023-03-14T10:57:00;4.22;;;1.38;;
21987;SDS011;11158;53.404;-1.510;2023-03-14T10:59:47;10.13;;;1.77;;
21987;SDS011;11158;53.404;-1.510;2023-03-14T11:17:19;2.42;;;1.17;;
21987;SDS011;11158;53.404;-1.510;2023-03-14T11:20:41;6.90;;;1.45;;
21987;SDS011;11158;53.404;-1.510;2023-03-14T11:23:27;6.13;;;1.65;;
21987;SDS011;11158;53.404;-1.510;2023-03-14T11:33:13;6.10;;;1.45;;
21987;SDS011;11158;53.404;-1.510;2023-03-14T11:36:01;7.70;;;1.83;;
21987;SDS011;11158;53.404;-1.510;2023-03-14T11:38:50;3.70;;;1.13;;
21987;SDS011;11158;53.404;-1.510;2023-03-14T11:41:37;5.15;;;1.40;;
21987;SDS011;11158;53.404;-1.510;2023-03-14T11:44:28;6.20;;;1.33;;
21987;SDS011;11158;53.404;-1.510;2023-03-14T11:47:22;6.40;;;1.40;;
21987;SDS011;11158;53.404;-1.510;2023-03-14T11:53:14;2.72;;;1.30;;
21987;SDS011;11158;53.404;-1.510;2023-03-14T11:56:04;3.58;;;1.00;;
21987;SDS011;11158;53.404;-1.510;2023-03-14T11:59:02;2.58;;;1.10;;
21987;SDS011;11158;53.404;-1.510;2023-03-14T12:01:55;1.60;;;0.90;;
21987;SDS011;11158;53.404;-1.510;2023-03-14T12:04:55;7.07;;;1.00;;
21987;SDS011;11158;53.404;-1.510;2023-03-14T12:10:38;2.88;;;1.20;;
21987;SDS011;11158;53.404;-1.510;2023-03-14T12:13:31;1.83;;;1.08;;
21987;SDS011;11158;53.404;-1.510;2023-03-14T12:16:36;5.70;;;1.10;;
21987;SDS011;11158;53.404;-1.510;2023-03-14T12:25:18;4.40;;;0.90;;
21987;SDS011;11158;53.404;-1.510;2023-03-14T12:28:16;1.15;;;0.90;;
21987;SDS011;11158;53.404;-1.510;2023-03-14T12:34:24;4.50;;;1.15;;
21987;SDS011;11158;53.404;-1.510;2023-03-14T12:37:18;5.35;;;1.10;;
21987;SDS011;11158;53.404;-1.510;2023-03-14T12:40:30;4.68;;;1.27;;
21987;SDS011;11158;53.404;-1.510;2023-03-14T12:43:27;4.43;;;0.90;;
21987;SDS011;11158;53.404;-1.510;2023-03-14T12:51:44;5.38;;;0.90;;
21987;SDS011;11158;53.404;-1.510;2023-03-14T12:54:32;3.22;;;1.08;;
21987;SDS011;11158;53.404;-1.510;2023-03-14T13:00:21;5.30;;;0.98;;
21987;SDS011;11158;53.404;-1.510;2023-03-14T13:03:23;5.10;;;0.98;;
21987;SDS011;11158;53.404;-1.510;2023-03-14T13:06:12;4.28;;;1.20;;
21987;SDS011;11158;53.404;-1.510;2023-03-14T13:08:56;7.15;;;1.38;;
21987;SDS011;11158;53.404;-1.510;2023-03-14T13:11:41;4.88;;;0.90;;
21987;SDS011;11158;53.404;-1.510;2023-03-14T13:14:27;4.75;;;1.10;;
21987;SDS011;11158;53.404;-1.510;2023-03-14T13:17:13;2.67;;;1.00;;
21987;SDS011;11158;53.404;-1.510;2023-03-14T13:20:00;6.60;;;1.75;;
21987;SDS011;11158;53.404;-1.510;2023-03-14T13:23:18;4.72;;;1.10;;
21987;SDS011;11158;53.404;-1.510;2023-03-14T13:26:06;4.53;;;1.48;;
21987;SDS011;11158;53.404;-1.510;2023-03-14T13:28:57;5.97;;;1.48;;
21987;SDS011;11158;53.404;-1.510;2023-03-14T13:31:48;6.40;;;1.58;;
21987;SDS011;11158;53.404;-1.510;2023-03-14T13:34:56;3.58;;;1.10;;
21987;SDS011;11158;53.404;-1.510;2023-03-14T13:37:41;7.90;;;2.15;;
21987;SDS011;11158;53.404;-1.510;2023-03-14T13:40:34;5.65;;;1.50;;
21987;SDS011;11158;53.404;-1.510;2023-03-14T13:43:30;4.53;;;1.20;;
21987;SDS011;11158;53.404;-1.510;2023-03-14T13:46:23;7.32;;;1.27;;
21987;SDS011;11158;53.404;-1.510;2023-03-14T13:49:18;3.65;;;1.20;;
21987;SDS011;11158;53.404;-1.510;2023-03-14T13:55:19;2.90;;;1.48;;
21987;SDS011;11158;53.404;-1.510;2023-03-14T13:58:04;2.47;;;1.00;;
21987;SDS011;11158;53.404;-1.510;2023-03-14T14:01:22;8.43;;;2.28;;
21987;SDS011;11158;53.404;-1.510;2023-03-14T14:04:16;5.05;;;1.40;;
21987;SDS011;11158;53.404;-1.510;2023-03-14T14:07:06;3.70;;;1.25;;
21987;SDS011;11158;53.404;-1.510;2023-03-14T14:09:53;3.72;;;2.10;;
21987;SDS011;11158;53.404;-1.510;2023-03-14T14:13:00;6.65;;;2.22;;
21987;SDS011;11158;53.404;-1.510;2023-03-14T14:15:46;5.93;;;2.30;;
21987;SDS011;11158;53.404;-1.510;2023-03-14T14:18:33;2.05;;;0.73;;
21987;SDS011;11158;53.404;-1.510;2023-03-14T14:21:19;2.03;;;1.00;;
21987;SDS011;11158;53.404;-1.510;2023-03-14T14:24:03;3.92;;;1.20;;
21987;SDS011;11158;53.404;-1.510;2023-03-14T14:26:52;2.13;;;0.90;;
21987;SDS011;11158;53.404;-1.510;2023-03-14T14:29:42;4.78;;;1.15;;
21987;SDS011;11158;53.404;-1.510;2023-03-14T14:32:34;1.70;;;0.90;;
21987;SDS011;11158;53.404;-1.510;2023-03-14T14:35:23;0.73;;;0.73;;
21987;SDS011;11158;53.404;-1.510;2023-03-14T14:38:17;2.50;;;1.05;;
21987;SDS011;11158;53.404;-1.510;2023-03-14T14:41:04;0.82;;;0.68;;
21987;SDS011;11158;53.404;-1.510;2023-03-14T14:43:48;2.03;;;0.88;;
21987;SDS011;11158;53.404;-1.510;2023-03-14T14:46:34;4.90;;;1.50;;
21987;SDS011;11158;53.404;-1.510;2023-03-14T14:49:22;5.40;;;1.00;;
21987;SDS011;11158;53.404;-1.510;2023-03-14T14:52:14;6.25;;;1.40;;
21987;SDS011;11158;53.404;-1.510;2023-03-14T14:55:01;3.42;;;1.30;;
21987;SDS011;11158;53.404;-1.510;2023-03-14T14:57:53;4.60;;;1.50;;
21987;SDS011;11158;53.404;-1.510;2023-03-14T15:00:39;5.18;;;2.10;;
21987;SDS011;11158;53.404;-1.510;2023-03-14T15:03:26;5.35;;;2.15;;
21987;SDS011;11158;53.404;-1.510;2023-03-14T15:06:13;4.53;;;1.63;;
21987;SDS011;11158;53.404;-1.510;2023-03-14T15:08:59;4.55;;;1.30;;
21987;SDS011;11158;53.404;-1.510;2023-03-14T15:11:43;5.25;;;1.80;;
21987;SDS011;11158;53.404;-1.510;2023-03-14T15:14:28;6.97;;;1.55;;
21987;SDS011;11158;53.404;-1.510;2023-03-14T15:17:12;5.32;;;1.80;;
21987;SDS011;11158;53.404;-1.510;2023-03-14T15:19:56;4.88;;;1.67;;
21987;SDS011;11158;53.404;-1.510;2023-03-14T15:22:41;4.25;;;1.40;;
21987;SDS011;11158;53.404;-1.510;2023-03-14T15:25:26;1.92;;;1.10;;
21987;SDS011;11158;53.404;-1.510;2023-03-14T15:28:14;2.03;;;1.00;;
21987;SDS011;11158;53.404;-1.510;2023-03-14T15:31:00;0.90;;;0.90;;
21987;SDS011;11158;53.404;-1.510;2023-03-14T15:33:45;1.75;;;1.23;;
21987;SDS011;11158;53.404;-1.510;2023-03-14T15:36:30;1.27;;;0.80;;
21987;SDS011;11158;53.404;-1.510;2023-03-14T15:39:16;0.82;;;0.82;;
21987;SDS011;11158;53.404;-1.510;2023-03-14T15:42:00;0.88;;;0.70;;
21987;SDS011;11158;53.404;-1.510;2023-03-14T15:44:45;0.70;;;0.70;;
21987;SDS011;11158;53.404;-1.510;2023-03-14T15:47:29;1.38;;;0.90;;
21987;SDS011;11158;53.404;-1.510;2023-03-14T15:50:16;2.00;;;0.80;;
21987;SDS011;11158;53.404;-1.510;2023-03-14T15:53:00;0.63;;;0.63;;
21987;SDS011;11158;53.404;-1.510;2023-03-14T15:55:44;2.08;;;0.77;;
21987;SDS011;11158;53.404;-1.510;2023-03-14T15:58:28;1.02;;;0.80;;
21987;SDS011;11158;53.404;-1.510;2023-03-14T16:01:13;0.90;;;0.73;;
21987;SDS011;11158;53.404;-1.510;2023-03-14T16:04:02;1.02;;;0.93;;
21987;SDS011;11158;53.404;-1.510;2023-03-14T16:06:46;1.98;;;1.33;;
21987;SDS011;11158;53.404;-1.510;2023-03-14T16:09:30;3.30;;;2.15;;
21987;SDS011;11158;53.404;-1.510;2023-03-14T16:12:15;3.20;;;1.85;;
21987;SDS011;11158;53.404;-1.510;2023-03-14T16:14:59;1.00;;;0.70;;
21987;SDS011;11158;53.404;-1.510;2023-03-14T16:17:43;3.78;;;1.10;;
21987;SDS011;11158;53.404;-1.510;2023-03-14T16:20:27;2.80;;;1.40;;
21987;SDS011;11158;53.404;-1.510;2023-03-14T16:23:12;2.10;;;1.20;;
21987;SDS011;11158;53.404;-1.510;2023-03-14T16:25:58;1.20;;;1.10;;
21987;SDS011;11158;53.404;-1.510;2023-03-14T16:28:42;1.70;;;1.02;;
21987;SDS011;11158;53.404;-1.510;2023-03-14T16:31:27;1.77;;;0.90;;
21987;SDS011;11158;53.404;-1.510;2023-03-14T16:34:11;1.63;;;1.25;;
21987;SDS011;11158;53.404;-1.510;2023-03-14T16:36:55;2.05;;;1.10;;
21987;SDS011;11158;53.404;-1.510;2023-03-14T16:39:40;2.33;;;1.38;;
21987;SDS011;11158;53.404;-1.510;2023-03-14T16:42:26;2.85;;;1.20;;
21987;SDS011;11158;53.404;-1.510;2023-03-14T16:45:11;2.00;;;1.30;;
21987;SDS011;11158;53.404;-1.510;2023-03-14T16:47:55;2.13;;;1.10;;
21987;SDS011;11158;53.404;-1.510;2023-03-14T16:50:39;1.75;;;0.88;;
21987;SDS011;11158;53.404;-1.510;2023-03-14T16:53:24;3.78;;;1.05;;
21987;SDS011;11158;53.404;-1.510;2023-03-14T16:56:12;3.10;;;1.00;;
21987;SDS011;11158;53.404;-1.510;2023-03-14T16:58:57;5.55;;;1.23;;
21987;SDS011;11158;53.404;-1.510;2023-03-14T17:01:41;1.27;;;1.02;;
21987;SDS011;11158;53.404;-1.510;2023-03-14T17:04:26;1.73;;;1.23;;
21987;SDS011;11158;53.404;-1.510;2023-03-14T17:07:11;1.23;;;0.98;;
21987;SDS011;11158;53.404;-1.510;2023-03-14T17:09:55;2.83;;;1.25;;
21987;SDS011;11158;53.404;-1.510;2023-03-14T17:12:40;4.18;;;0.98;;
21987;SDS011;11158;53.404;-1.510;2023-03-14T17:15:24;2.55;;;1.10;;
21987;SDS011;11158;53.404;-1.510;2023-03-14T17:18:08;2.38;;;1.33;;